sensor_id;sensor_type;location;lat;lon;timestamp;temperature;humidity
57566;DHT22;63999;43.882;-0.310;2022-10-31T00:00:21;18.90;85.20
57566;DHT22;63999;43.882;-0.310;2022-10-31T00:02:47;18.90;85.00
57566;DHT22;63999;43.882;-0.310;2022-10-31T00:05:13;18.90;84.80
57566;DHT22;63999;43.882;-0.310;2022-10-31T00:07:38;18.90;85.00
57566;DHT22;63999;43.882;-0.310;2022-10-31T00:10:05;18.90;83.80
57566;DHT22;63999;43.882;-0.310;2022-10-31T00:12:31;18.80;83.50
57566;DHT22;63999;43.882;-0.310;2022-10-31T00:14:56;18.80;82.30
57566;DHT22;63999;43.882;-0.310;2022-10-31T00:17:22;18.80;83.20
57566;DHT22;63999;43.882;-0.310;2022-10-31T00:19:48;18.80;83.10
57566;DHT22;63999;43.882;-0.310;2022-10-31T00:22:13;18.80;84.20
57566;DHT22;63999;43.882;-0.310;2022-10-31T00:24:39;18.80;84.20
57566;DHT22;63999;43.882;-0.310;2022-10-31T00:27:05;18.80;83.80
57566;DHT22;63999;43.882;-0.310;2022-10-31T00:29:30;18.80;83.20
57566;DHT22;63999;43.882;-0.310;2022-10-31T00:31:56;18.80;83.60
57566;DHT22;63999;43.882;-0.310;2022-10-31T00:34:22;18.80;83.50
57566;DHT22;63999;43.882;-0.310;2022-10-31T00:36:48;18.80;83.70
57566;DHT22;63999;43.882;-0.310;2022-10-31T00:39:13;18.80;83.70
57566;DHT22;63999;43.882;-0.310;2022-10-31T00:41:39;18.80;84.30
57566;DHT22;63999;43.882;-0.310;2022-10-31T00:44:05;18.80;83.10
57566;DHT22;63999;43.882;-0.310;2022-10-31T00:46:30;18.80;82.80
57566;DHT22;63999;43.882;-0.310;2022-10-31T00:48:56;18.80;83.40
57566;DHT22;63999;43.882;-0.310;2022-10-31T00:51:22;18.80;84.20
57566;DHT22;63999;43.882;-0.310;2022-10-31T00:53:48;18.80;84.50
57566;DHT22;63999;43.882;-0.310;2022-10-31T00:56:13;18.80;83.30
57566;DHT22;63999;43.882;-0.310;2022-10-31T00:58:39;18.70;83.30
57566;DHT22;63999;43.882;-0.310;2022-10-31T01:01:05;18.70;82.60
57566;DHT22;63999;43.882;-0.310;2022-10-31T01:03:32;18.70;84.30
57566;DHT22;63999;43.882;-0.310;2022-10-31T01:06:01;18.80;83.10
57566;DHT22;63999;43.882;-0.310;2022-10-31T01:08:27;18.70;82.10
57566;DHT22;63999;43.882;-0.310;2022-10-31T01:11:07;18.70;82.90
57566;DHT22;63999;43.882;-0.310;2022-10-31T01:13:34;18.70;83.40
57566;DHT22;63999;43.882;-0.310;2022-10-31T01:16:00;18.70;84.30
57566;DHT22;63999;43.882;-0.310;2022-10-31T01:18:28;18.70;84.50
57566;DHT22;63999;43.882;-0.310;2022-10-31T01:21:08;18.70;84.40
57566;DHT22;63999;43.882;-0.310;2022-10-31T01:23:35;18.70;84.20
57566;DHT22;63999;43.882;-0.310;2022-10-31T01:26:33;18.70;83.00
57566;DHT22;63999;43.882;-0.310;2022-10-31T01:29:01;18.70;84.50
57566;DHT22;63999;43.882;-0.310;2022-10-31T01:31:29;18.70;83.30
57566;DHT22;63999;43.882;-0.310;2022-10-31T01:33:56;18.70;83.00
57566;DHT22;63999;43.882;-0.310;2022-10-31T01:36:33;18.70;84.00
57566;DHT22;63999;43.882;-0.310;2022-10-31T01:39:07;18.60;84.20
57566;DHT22;63999;43.882;-0.310;2022-10-31T01:41:35;18.60;84.70
57566;DHT22;63999;43.882;-0.310;2022-10-31T01:44:49;18.60;84.50
57566;DHT22;63999;43.882;-0.310;2022-10-31T01:46:55;18.60;83.00
57566;DHT22;63999;43.882;-0.310;2022-10-31T01:49:37;18.60;83.20
57566;DHT22;63999;43.882;-0.310;2022-10-31T01:55:05;18.60;83.60
57566;DHT22;63999;43.882;-0.310;2022-10-31T01:57:32;18.60;84.30
57566;DHT22;63999;43.882;-0.310;2022-10-31T02:00:02;18.60;83.30
57566;DHT22;63999;43.882;-0.310;2022-10-31T02:02:30;18.60;82.80
57566;DHT22;63999;43.882;-0.310;2022-10-31T02:04:59;18.50;82.90
57566;DHT22;63999;43.882;-0.310;2022-10-31T02:07:33;18.50;82.30
57566;DHT22;63999;43.882;-0.310;2022-10-31T02:10:02;18.50;81.50
57566;DHT22;63999;43.882;-0.310;2022-10-31T02:12:30;18.50;81.80
57566;DHT22;63999;43.882;-0.310;2022-10-31T02:14:57;18.40;82.10
57566;DHT22;63999;43.882;-0.310;2022-10-31T02:17:23;18.40;81.20
57566;DHT22;63999;43.882;-0.310;2022-10-31T02:22:39;18.40;80.50
57566;DHT22;63999;43.882;-0.310;2022-10-31T02:31:43;18.30;80.90
57566;DHT22;63999;43.882;-0.310;2022-10-31T02:34:57;18.30;81.00
57566;DHT22;63999;43.882;-0.310;2022-10-31T02:37:01;18.30;80.50
57566;DHT22;63999;43.882;-0.310;2022-10-31T02:39:35;18.30;80.00
57566;DHT22;63999;43.882;-0.310;2022-10-31T02:42:04;18.20;79.00
57566;DHT22;63999;43.882;-0.310;2022-10-31T02:47:05;18.20;79.40
57566;DHT22;63999;43.882;-0.310;2022-10-31T02:49:52;18.20;80.70
57566;DHT22;63999;43.882;-0.310;2022-10-31T02:52:21;18.20;79.00
57566;DHT22;63999;43.882;-0.310;2022-10-31T02:54:47;18.20;80.20
57566;DHT22;63999;43.882;-0.310;2022-10-31T02:57:14;18.20;79.30
57566;DHT22;63999;43.882;-0.310;2022-10-31T02:59:46;18.20;78.80
57566;DHT22;63999;43.882;-0.310;2022-10-31T03:02:51;18.10;78.40
57566;DHT22;63999;43.882;-0.310;2022-10-31T03:05:29;18.10;80.00
57566;DHT22;63999;43.882;-0.310;2022-10-31T03:08:11;18.10;79.70
57566;DHT22;63999;43.882;-0.310;2022-10-31T03:11:04;18.10;78.30
57566;DHT22;63999;43.882;-0.310;2022-10-31T03:16:26;18.00;78.70
57566;DHT22;63999;43.882;-0.310;2022-10-31T03:19:05;18.00;77.70
57566;DHT22;63999;43.882;-0.310;2022-10-31T03:21:42;18.00;78.40
57566;DHT22;63999;43.882;-0.310;2022-10-31T03:24:10;18.00;79.20
57566;DHT22;63999;43.882;-0.310;2022-10-31T03:26:40;18.00;79.40
57566;DHT22;63999;43.882;-0.310;2022-10-31T03:29:08;18.00;78.50
57566;DHT22;63999;43.882;-0.310;2022-10-31T03:31:42;18.00;77.00
57566;DHT22;63999;43.882;-0.310;2022-10-31T03:34:12;18.00;78.10
57566;DHT22;63999;43.882;-0.310;2022-10-31T03:36:40;17.90;77.70
57566;DHT22;63999;43.882;-0.310;2022-10-31T03:39:08;18.00;78.30
57566;DHT22;63999;43.882;-0.310;2022-10-31T03:41:40;17.90;77.30
57566;DHT22;63999;43.882;-0.310;2022-10-31T03:44:16;17.90;77.60
57566;DHT22;63999;43.882;-0.310;2022-10-31T03:46:43;17.90;77.40
57566;DHT22;63999;43.882;-0.310;2022-10-31T03:49:10;17.80;77.90
57566;DHT22;63999;43.882;-0.310;2022-10-31T03:51:47;17.80;77.40
57566;DHT22;63999;43.882;-0.310;2022-10-31T03:54:32;17.80;77.70
57566;DHT22;63999;43.882;-0.310;2022-10-31T03:57:07;17.80;77.10
57566;DHT22;63999;43.882;-0.310;2022-10-31T03:59:42;17.80;77.60
57566;DHT22;63999;43.882;-0.310;2022-10-31T04:02:15;17.80;76.80
57566;DHT22;63999;43.882;-0.310;2022-10-31T04:04:43;17.80;77.90
57566;DHT22;63999;43.882;-0.310;2022-10-31T04:07:10;17.80;76.00
57566;DHT22;63999;43.882;-0.310;2022-10-31T04:09:40;17.80;76.10
57566;DHT22;63999;43.882;-0.310;2022-10-31T04:12:08;17.80;75.60
57566;DHT22;63999;43.882;-0.310;2022-10-31T04:14:38;17.60;76.20
57566;DHT22;63999;43.882;-0.310;2022-10-31T04:17:08;17.70;76.80
57566;DHT22;63999;43.882;-0.310;2022-10-31T04:19:35;17.70;76.00
57566;DHT22;63999;43.882;-0.310;2022-10-31T04:22:01;17.60;75.70
57566;DHT22;63999;43.882;-0.310;2022-10-31T04:24:27;17.60;76.00
57566;DHT22;63999;43.882;-0.310;2022-10-31T04:26:53;17.60;75.60
57566;DHT22;63999;43.882;-0.310;2022-10-31T04:29:18;17.60;76.00
57566;DHT22;63999;43.882;-0.310;2022-10-31T04:31:44;17.60;76.80
57566;DHT22;63999;43.882;-0.310;2022-10-31T04:34:10;17.60;75.30
57566;DHT22;63999;43.882;-0.310;2022-10-31T04:36:35;17.50;75.50
57566;DHT22;63999;43.882;-0.310;2022-10-31T04:39:01;17.50;76.30
57566;DHT22;63999;43.882;-0.310;2022-10-31T04:41:27;17.50;76.10
57566;DHT22;63999;43.882;-0.310;2022-10-31T04:43:53;17.50;75.20
57566;DHT22;63999;43.882;-0.310;2022-10-31T04:46:18;17.50;75.80
57566;DHT22;63999;43.882;-0.310;2022-10-31T04:48:44;17.50;75.50
57566;DHT22;63999;43.882;-0.310;2022-10-31T04:51:10;17.50;75.70
57566;DHT22;63999;43.882;-0.310;2022-10-31T04:53:36;17.50;75.40
57566;DHT22;63999;43.882;-0.310;2022-10-31T04:56:01;17.50;75.00
57566;DHT22;63999;43.882;-0.310;2022-10-31T04:58:27;17.50;75.80
57566;DHT22;63999;43.882;-0.310;2022-10-31T05:00:54;17.40;76.10
57566;DHT22;63999;43.882;-0.310;2022-10-31T05:03:20;17.40;75.10
57566;DHT22;63999;43.882;-0.310;2022-10-31T05:05:46;17.40;75.50
57566;DHT22;63999;43.882;-0.310;2022-10-31T05:08:12;17.40;75.80
57566;DHT22;63999;43.882;-0.310;2022-10-31T05:10:38;17.40;75.80
57566;DHT22;63999;43.882;-0.310;2022-10-31T05:13:04;17.40;76.70
57566;DHT22;63999;43.882;-0.310;2022-10-31T05:15:31;17.40;75.70
57566;DHT22;63999;43.882;-0.310;2022-10-31T05:17:57;17.40;76.00
57566;DHT22;63999;43.882;-0.310;2022-10-31T05:20:25;17.40;75.40
57566;DHT22;63999;43.882;-0.310;2022-10-31T05:22:53;17.40;76.20
57566;DHT22;63999;43.882;-0.310;2022-10-31T05:25:20;17.40;75.80
57566;DHT22;63999;43.882;-0.310;2022-10-31T05:27:48;17.40;77.60
57566;DHT22;63999;43.882;-0.310;2022-10-31T05:30:17;17.30;75.80
57566;DHT22;63999;43.882;-0.310;2022-10-31T05:32:47;17.30;76.20
57566;DHT22;63999;43.882;-0.310;2022-10-31T05:35:16;17.20;76.20
57566;DHT22;63999;43.882;-0.310;2022-10-31T05:37:43;17.20;76.30
57566;DHT22;63999;43.882;-0.310;2022-10-31T05:40:10;17.20;75.80
57566;DHT22;63999;43.882;-0.310;2022-10-31T05:42:38;17.20;75.70
57566;DHT22;63999;43.882;-0.310;2022-10-31T05:45:06;17.20;76.50
57566;DHT22;63999;43.882;-0.310;2022-10-31T05:47:32;17.20;76.60
57566;DHT22;63999;43.882;-0.310;2022-10-31T05:49:58;17.20;77.10
57566;DHT22;63999;43.882;-0.310;2022-10-31T05:52:23;17.20;76.20
57566;DHT22;63999;43.882;-0.310;2022-10-31T05:54:49;17.20;75.80
57566;DHT22;63999;43.882;-0.310;2022-10-31T05:57:15;17.20;76.60
57566;DHT22;63999;43.882;-0.310;2022-10-31T05:59:40;17.20;77.20
57566;DHT22;63999;43.882;-0.310;2022-10-31T06:02:06;17.20;76.60
57566;DHT22;63999;43.882;-0.310;2022-10-31T06:04:32;17.20;75.90
57566;DHT22;63999;43.882;-0.310;2022-10-31T06:06:57;17.20;76.10
57566;DHT22;63999;43.882;-0.310;2022-10-31T06:09:23;17.20;76.40
57566;DHT22;63999;43.882;-0.310;2022-10-31T06:11:49;17.20;76.50
57566;DHT22;63999;43.882;-0.310;2022-10-31T06:14:15;17.20;76.00
57566;DHT22;63999;43.882;-0.310;2022-10-31T06:16:40;17.20;75.80
57566;DHT22;63999;43.882;-0.310;2022-10-31T06:19:06;17.20;75.80
57566;DHT22;63999;43.882;-0.310;2022-10-31T06:21:32;17.20;75.70
57566;DHT22;63999;43.882;-0.310;2022-10-31T06:23:58;17.20;75.80
57566;DHT22;63999;43.882;-0.310;2022-10-31T06:26:26;17.20;76.20
57566;DHT22;63999;43.882;-0.310;2022-10-31T06:28:52;17.20;76.70
57566;DHT22;63999;43.882;-0.310;2022-10-31T06:31:18;17.20;76.10
57566;DHT22;63999;43.882;-0.310;2022-10-31T06:33:44;17.10;75.60
57566;DHT22;63999;43.882;-0.310;2022-10-31T06:36:10;17.10;75.70
57566;DHT22;63999;43.882;-0.310;2022-10-31T06:38:36;17.00;75.90
57566;DHT22;63999;43.882;-0.310;2022-10-31T06:41:03;17.00;75.80
57566;DHT22;63999;43.882;-0.310;2022-10-31T06:43:31;17.00;75.70
57566;DHT22;63999;43.882;-0.310;2022-10-31T06:45:57;17.00;75.60
57566;DHT22;63999;43.882;-0.310;2022-10-31T06:48:23;17.00;76.00
57566;DHT22;63999;43.882;-0.310;2022-10-31T06:50:49;17.00;76.30
57566;DHT22;63999;43.882;-0.310;2022-10-31T06:56:21;17.00;76.10
57566;DHT22;63999;43.882;-0.310;2022-10-31T06:58:53;17.00;75.70
57566;DHT22;63999;43.882;-0.310;2022-10-31T07:01:23;17.00;75.70
57566;DHT22;63999;43.882;-0.310;2022-10-31T07:03:48;17.00;75.70
57566;DHT22;63999;43.882;-0.310;2022-10-31T07:06:14;17.00;75.90
57566;DHT22;63999;43.882;-0.310;2022-10-31T07:08:40;17.00;76.00
57566;DHT22;63999;43.882;-0.310;2022-10-31T07:11:06;17.00;76.00
57566;DHT22;63999;43.882;-0.310;2022-10-31T07:13:32;16.90;75.50
57566;DHT22;63999;43.882;-0.310;2022-10-31T07:16:03;17.00;77.00
57566;DHT22;63999;43.882;-0.310;2022-10-31T07:18:29;17.00;76.80
57566;DHT22;63999;43.882;-0.310;2022-10-31T07:20:55;17.00;76.10
57566;DHT22;63999;43.882;-0.310;2022-10-31T07:23:21;16.90;76.10
57566;DHT22;63999;43.882;-0.310;2022-10-31T07:25:47;16.90;76.50
57566;DHT22;63999;43.882;-0.310;2022-10-31T07:28:13;16.90;76.40
57566;DHT22;63999;43.882;-0.310;2022-10-31T07:30:39;16.90;76.90
57566;DHT22;63999;43.882;-0.310;2022-10-31T07:33:05;16.90;76.40
57566;DHT22;63999;43.882;-0.310;2022-10-31T07:35:32;16.90;76.70
57566;DHT22;63999;43.882;-0.310;2022-10-31T07:38:10;16.90;76.60
57566;DHT22;63999;43.882;-0.310;2022-10-31T07:40:37;16.80;76.30
57566;DHT22;63999;43.882;-0.310;2022-10-31T07:43:04;16.80;77.30
57566;DHT22;63999;43.882;-0.310;2022-10-31T07:45:30;16.80;76.40
57566;DHT22;63999;43.882;-0.310;2022-10-31T07:47:56;16.80;76.80
57566;DHT22;63999;43.882;-0.310;2022-10-31T07:50:24;16.80;76.60
57566;DHT22;63999;43.882;-0.310;2022-10-31T07:55:26;16.80;77.00
57566;DHT22;63999;43.882;-0.310;2022-10-31T07:57:58;16.90;77.50
57566;DHT22;63999;43.882;-0.310;2022-10-31T08:00:24;16.80;76.60
57566;DHT22;63999;43.882;-0.310;2022-10-31T08:05:28;16.80;77.10
57566;DHT22;63999;43.882;-0.310;2022-10-31T08:07:54;16.80;77.20
57566;DHT22;63999;43.882;-0.310;2022-10-31T08:10:21;16.80;77.60
57566;DHT22;63999;43.882;-0.310;2022-10-31T08:12:47;16.80;76.90
57566;DHT22;63999;43.882;-0.310;2022-10-31T08:15:19;16.80;77.10
57566;DHT22;63999;43.882;-0.310;2022-10-31T08:17:45;16.80;77.20
57566;DHT22;63999;43.882;-0.310;2022-10-31T08:20:11;16.80;77.20
57566;DHT22;63999;43.882;-0.310;2022-10-31T08:22:36;16.80;77.20
57566;DHT22;63999;43.882;-0.310;2022-10-31T08:25:02;16.80;77.30
57566;DHT22;63999;43.882;-0.310;2022-10-31T08:27:28;16.90;77.60
57566;DHT22;63999;43.882;-0.310;2022-10-31T08:29:54;16.90;78.50
57566;DHT22;63999;43.882;-0.310;2022-10-31T08:32:20;16.90;78.10
57566;DHT22;63999;43.882;-0.310;2022-10-31T08:34:45;16.90;78.30
57566;DHT22;63999;43.882;-0.310;2022-10-31T08:37:11;16.90;78.30
57566;DHT22;63999;43.882;-0.310;2022-10-31T08:39:37;16.90;78.10
57566;DHT22;63999;43.882;-0.310;2022-10-31T08:42:02;16.90;78.40
57566;DHT22;63999;43.882;-0.310;2022-10-31T08:44:28;16.90;78.50
57566;DHT22;63999;43.882;-0.310;2022-10-31T08:46:54;16.90;78.40
57566;DHT22;63999;43.882;-0.310;2022-10-31T08:49:19;16.90;78.60
57566;DHT22;63999;43.882;-0.310;2022-10-31T08:51:48;16.90;78.50
57566;DHT22;63999;43.882;-0.310;2022-10-31T08:54:13;16.90;78.70
57566;DHT22;63999;43.882;-0.310;2022-10-31T08:56:39;17.00;78.50
57566;DHT22;63999;43.882;-0.310;2022-10-31T08:59:05;17.00;78.70
57566;DHT22;63999;43.882;-0.310;2022-10-31T09:01:30;17.00;79.40
57566;DHT22;63999;43.882;-0.310;2022-10-31T09:03:56;17.00;78.60
57566;DHT22;63999;43.882;-0.310;2022-10-31T09:06:22;17.00;78.60
57566;DHT22;63999;43.882;-0.310;2022-10-31T09:08:48;17.00;78.70
57566;DHT22;63999;43.882;-0.310;2022-10-31T09:11:14;17.00;78.40
57566;DHT22;63999;43.882;-0.310;2022-10-31T09:13:39;17.00;78.50
57566;DHT22;63999;43.882;-0.310;2022-10-31T09:16:05;17.00;79.80
57566;DHT22;63999;43.882;-0.310;2022-10-31T09:18:32;17.00;78.50
57566;DHT22;63999;43.882;-0.310;2022-10-31T09:20:59;17.00;79.00
57566;DHT22;63999;43.882;-0.310;2022-10-31T09:23:25;17.00;79.00
57566;DHT22;63999;43.882;-0.310;2022-10-31T09:25:52;17.10;79.50
57566;DHT22;63999;43.882;-0.310;2022-10-31T09:28:20;17.10;80.10
57566;DHT22;63999;43.882;-0.310;2022-10-31T09:30:48;17.10;80.20
57566;DHT22;63999;43.882;-0.310;2022-10-31T09:33:15;17.20;79.90
57566;DHT22;63999;43.882;-0.310;2022-10-31T09:35:41;17.20;79.70
57566;DHT22;63999;43.882;-0.310;2022-10-31T09:38:10;17.20;80.40
57566;DHT22;63999;43.882;-0.310;2022-10-31T09:40:45;17.20;80.80
57566;DHT22;63999;43.882;-0.310;2022-10-31T09:43:50;17.30;79.90
57566;DHT22;63999;43.882;-0.310;2022-10-31T09:49:34;17.30;79.40
57566;DHT22;63999;43.882;-0.310;2022-10-31T09:52:21;17.40;79.60
57566;DHT22;63999;43.882;-0.310;2022-10-31T09:57:33;17.50;80.10
57566;DHT22;63999;43.882;-0.310;2022-10-31T10:00:03;17.50;79.40
57566;DHT22;63999;43.882;-0.310;2022-10-31T10:02:45;17.50;79.60
57566;DHT22;63999;43.882;-0.310;2022-10-31T10:05:13;17.50;80.10
57566;DHT22;63999;43.882;-0.310;2022-10-31T10:33:05;17.50;79.20
57566;DHT22;63999;43.882;-0.310;2022-10-31T10:35:39;17.50;79.00
57566;DHT22;63999;43.882;-0.310;2022-10-31T10:38:16;17.50;79.50
57566;DHT22;63999;43.882;-0.310;2022-10-31T10:40:43;17.50;79.00
57566;DHT22;63999;43.882;-0.310;2022-10-31T10:43:25;17.50;79.40
57566;DHT22;63999;43.882;-0.310;2022-10-31T10:46:18;17.50;79.00
57566;DHT22;63999;43.882;-0.310;2022-10-31T11:00:20;17.60;79.40
57566;DHT22;63999;43.882;-0.310;2022-10-31T11:02:47;17.60;79.00
57566;DHT22;63999;43.882;-0.310;2022-10-31T11:05:39;17.60;78.90
57566;DHT22;63999;43.882;-0.310;2022-10-31T11:08:07;17.60;79.00
57566;DHT22;63999;43.882;-0.310;2022-10-31T11:10:35;17.60;78.90
57566;DHT22;63999;43.882;-0.310;2022-10-31T11:13:17;17.50;78.90
57566;DHT22;63999;43.882;-0.310;2022-10-31T11:16:04;17.60;79.00
57566;DHT22;63999;43.882;-0.310;2022-10-31T11:18:34;17.60;78.90
57566;DHT22;63999;43.882;-0.310;2022-10-31T11:21:04;17.60;78.80
57566;DHT22;63999;43.882;-0.310;2022-10-31T11:23:31;17.60;78.70
57566;DHT22;63999;43.882;-0.310;2022-10-31T11:26:04;17.60;78.80
57566;DHT22;63999;43.882;-0.310;2022-10-31T11:28:33;17.60;79.00
57566;DHT22;63999;43.882;-0.310;2022-10-31T11:31:10;17.60;79.30
57566;DHT22;63999;43.882;-0.310;2022-10-31T11:33:57;17.60;79.20
57566;DHT22;63999;43.882;-0.310;2022-10-31T11:36:37;17.70;79.20
57566;DHT22;63999;43.882;-0.310;2022-10-31T11:39:13;17.70;79.10
57566;DHT22;63999;43.882;-0.310;2022-10-31T11:41:41;17.70;79.60
57566;DHT22;63999;43.882;-0.310;2022-10-31T11:44:16;17.80;79.30
57566;DHT22;63999;43.882;-0.310;2022-10-31T11:46:57;17.80;79.60
57566;DHT22;63999;43.882;-0.310;2022-10-31T11:49:34;17.80;79.30
57566;DHT22;63999;43.882;-0.310;2022-10-31T11:54:58;17.80;80.00
57566;DHT22;63999;43.882;-0.310;2022-10-31T11:57:43;17.80;79.40
57566;DHT22;63999;43.882;-0.310;2022-10-31T12:02:51;17.80;79.40
57566;DHT22;63999;43.882;-0.310;2022-10-31T12:07:45;17.80;79.90
57566;DHT22;63999;43.882;-0.310;2022-10-31T12:10:13;17.80;79.90
57566;DHT22;63999;43.882;-0.310;2022-10-31T12:13:11;17.80;79.20
57566;DHT22;63999;43.882;-0.310;2022-10-31T12:15:47;17.80;78.90
57566;DHT22;63999;43.882;-0.310;2022-10-31T12:18:41;17.80;78.80
57566;DHT22;63999;43.882;-0.310;2022-10-31T12:21:30;17.80;79.00
57566;DHT22;63999;43.882;-0.310;2022-10-31T12:27:16;17.80;79.40
57566;DHT22;63999;43.882;-0.310;2022-10-31T12:30:15;17.80;79.80
57566;DHT22;63999;43.882;-0.310;2022-10-31T12:36:15;17.80;79.70
57566;DHT22;63999;43.882;-0.310;2022-10-31T12:38:46;17.80;79.00
57566;DHT22;63999;43.882;-0.310;2022-10-31T12:41:41;17.80;78.80
57566;DHT22;63999;43.882;-0.310;2022-10-31T12:47:07;17.80;78.70
57566;DHT22;63999;43.882;-0.310;2022-10-31T12:50:00;17.80;78.70
57566;DHT22;63999;43.882;-0.310;2022-10-31T12:52:54;17.80;78.90
57566;DHT22;63999;43.882;-0.310;2022-10-31T12:58:26;17.90;80.50
57566;DHT22;63999;43.882;-0.310;2022-10-31T13:01:50;18.00;80.60
57566;DHT22;63999;43.882;-0.310;2022-10-31T13:06:55;18.00;80.90
57566;DHT22;63999;43.882;-0.310;2022-10-31T13:09:30;18.00;80.30
57566;DHT22;63999;43.882;-0.310;2022-10-31T13:12:07;18.00;81.20
57566;DHT22;63999;43.882;-0.310;2022-10-31T13:14:53;18.00;80.40
57566;DHT22;63999;43.882;-0.310;2022-10-31T13:17:34;18.00;80.30
57566;DHT22;63999;43.882;-0.310;2022-10-31T13:22:54;18.00;80.10
57566;DHT22;63999;43.882;-0.310;2022-10-31T13:25:30;18.00;80.00
57566;DHT22;63999;43.882;-0.310;2022-10-31T13:28:20;18.00;80.60
57566;DHT22;63999;43.882;-0.310;2022-10-31T13:30:50;18.00;81.00
57566;DHT22;63999;43.882;-0.310;2022-10-31T13:33:27;18.00;80.40
57566;DHT22;63999;43.882;-0.310;2022-10-31T13:36:31;18.00;80.20
57566;DHT22;63999;43.882;-0.310;2022-10-31T13:41:57;18.00;79.90
57566;DHT22;63999;43.882;-0.310;2022-10-31T13:44:35;18.00;80.00
57566;DHT22;63999;43.882;-0.310;2022-10-31T13:47:28;18.00;79.90
57566;DHT22;63999;43.882;-0.310;2022-10-31T13:50:28;18.00;80.20
57566;DHT22;63999;43.882;-0.310;2022-10-31T13:55:38;18.00;80.30
57566;DHT22;63999;43.882;-0.310;2022-10-31T13:58:29;18.10;80.40
57566;DHT22;63999;43.882;-0.310;2022-10-31T14:03:40;18.10;79.90
57566;DHT22;63999;43.882;-0.310;2022-10-31T14:06:09;18.10;79.80
57566;DHT22;63999;43.882;-0.310;2022-10-31T14:08:48;18.00;80.30
57566;DHT22;63999;43.882;-0.310;2022-10-31T14:11:24;18.10;81.00
57566;DHT22;63999;43.882;-0.310;2022-10-31T14:13:55;18.10;80.80
57566;DHT22;63999;43.882;-0.310;2022-10-31T14:16:30;18.10;81.70
57566;DHT22;63999;43.882;-0.310;2022-10-31T14:19:29;18.10;82.20
57566;DHT22;63999;43.882;-0.310;2022-10-31T14:21:55;18.20;82.60
57566;DHT22;63999;43.882;-0.310;2022-10-31T14:26:54;18.20;82.10
57566;DHT22;63999;43.882;-0.310;2022-10-31T14:29:31;18.20;82.30
57566;DHT22;63999;43.882;-0.310;2022-10-31T14:34:53;18.20;83.10
57566;DHT22;63999;43.882;-0.310;2022-10-31T14:43:21;18.20;82.80
57566;DHT22;63999;43.882;-0.310;2022-10-31T14:51:46;18.20;82.80
57566;DHT22;63999;43.882;-0.310;2022-10-31T14:54:15;18.20;82.90
57566;DHT22;63999;43.882;-0.310;2022-10-31T14:56:48;18.20;82.70
57566;DHT22;63999;43.882;-0.310;2022-10-31T14:59:26;18.20;82.60
57566;DHT22;63999;43.882;-0.310;2022-10-31T15:02:00;18.20;82.80
57566;DHT22;63999;43.882;-0.310;2022-10-31T15:04:29;18.20;82.00
57566;DHT22;63999;43.882;-0.310;2022-10-31T15:07:14;18.20;82.10
57566;DHT22;63999;43.882;-0.310;2022-10-31T15:09:41;18.20;82.40
57566;DHT22;63999;43.882;-0.310;2022-10-31T15:12:25;18.20;82.50
57566;DHT22;63999;43.882;-0.310;2022-10-31T15:14:51;18.20;82.40
57566;DHT22;63999;43.882;-0.310;2022-10-31T15:17:18;18.20;82.10
57566;DHT22;63999;43.882;-0.310;2022-10-31T15:19:44;18.20;82.20
57566;DHT22;63999;43.882;-0.310;2022-10-31T15:22:16;18.10;81.50
57566;DHT22;63999;43.882;-0.310;2022-10-31T15:24:44;18.10;81.60
57566;DHT22;63999;43.882;-0.310;2022-10-31T15:27:15;18.10;81.50
57566;DHT22;63999;43.882;-0.310;2022-10-31T15:29:52;18.10;81.50
57566;DHT22;63999;43.882;-0.310;2022-10-31T15:32:21;18.10;81.70
57566;DHT22;63999;43.882;-0.310;2022-10-31T15:34:49;18.10;81.30
57566;DHT22;63999;43.882;-0.310;2022-10-31T15:37:17;18.20;81.10
57566;DHT22;63999;43.882;-0.310;2022-10-31T15:39:44;18.20;81.00
57566;DHT22;63999;43.882;-0.310;2022-10-31T15:45:18;18.20;80.60
57566;DHT22;63999;43.882;-0.310;2022-10-31T15:47:59;18.10;80.70
57566;DHT22;63999;43.882;-0.310;2022-10-31T15:50:40;18.10;80.50
57566;DHT22;63999;43.882;-0.310;2022-10-31T15:53:34;18.10;80.50
57566;DHT22;63999;43.882;-0.310;2022-10-31T15:56:04;18.10;80.40
57566;DHT22;63999;43.882;-0.310;2022-10-31T15:58:42;18.10;80.50
57566;DHT22;63999;43.882;-0.310;2022-10-31T16:01:27;18.10;80.50
57566;DHT22;63999;43.882;-0.310;2022-10-31T16:06:31;18.10;80.40
57566;DHT22;63999;43.882;-0.310;2022-10-31T16:08:59;18.10;80.30
57566;DHT22;63999;43.882;-0.310;2022-10-31T16:11:36;18.10;80.40
57566;DHT22;63999;43.882;-0.310;2022-10-31T16:16:43;18.10;80.30
57566;DHT22;63999;43.882;-0.310;2022-10-31T16:19:26;18.10;80.40
57566;DHT22;63999;43.882;-0.310;2022-10-31T16:21:55;18.10;80.40
57566;DHT22;63999;43.882;-0.310;2022-10-31T16:24:29;18.10;80.50
57566;DHT22;63999;43.882;-0.310;2022-10-31T16:27:06;18.10;80.80
57566;DHT22;63999;43.882;-0.310;2022-10-31T16:32:00;18.10;80.40
57566;DHT22;63999;43.882;-0.310;2022-10-31T16:34:26;18.10;80.30
57566;DHT22;63999;43.882;-0.310;2022-10-31T16:36:52;18.10;80.30
57566;DHT22;63999;43.882;-0.310;2022-10-31T16:39:18;18.10;80.20
57566;DHT22;63999;43.882;-0.310;2022-10-31T16:41:46;18.10;80.30
57566;DHT22;63999;43.882;-0.310;2022-10-31T16:44:24;18.10;80.40
57566;DHT22;63999;43.882;-0.310;2022-10-31T16:49:34;18.10;80.50
57566;DHT22;63999;43.882;-0.310;2022-10-31T16:52:00;18.10;80.50
57566;DHT22;63999;43.882;-0.310;2022-10-31T16:54:25;18.10;80.50
57566;DHT22;63999;43.882;-0.310;2022-10-31T16:56:51;18.10;80.30
57566;DHT22;63999;43.882;-0.310;2022-10-31T16:59:17;18.10;80.30
57566;DHT22;63999;43.882;-0.310;2022-10-31T17:01:44;18.10;80.10
57566;DHT22;63999;43.882;-0.310;2022-10-31T17:04:13;18.10;80.10
57566;DHT22;63999;43.882;-0.310;2022-10-31T17:06:39;18.10;80.10
57566;DHT22;63999;43.882;-0.310;2022-10-31T17:09:05;18.10;80.40
57566;DHT22;63999;43.882;-0.310;2022-10-31T17:11:31;18.10;80.10
57566;DHT22;63999;43.882;-0.310;2022-10-31T17:13:57;18.10;80.50
57566;DHT22;63999;43.882;-0.310;2022-10-31T17:16:23;18.10;80.50
57566;DHT22;63999;43.882;-0.310;2022-10-31T17:18:49;18.10;80.40
57566;DHT22;63999;43.882;-0.310;2022-10-31T17:21:22;18.10;80.70
57566;DHT22;63999;43.882;-0.310;2022-10-31T17:23:49;18.10;80.40
57566;DHT22;63999;43.882;-0.310;2022-10-31T17:26:15;18.10;80.30
57566;DHT22;63999;43.882;-0.310;2022-10-31T17:28:41;18.10;80.40
57566;DHT22;63999;43.882;-0.310;2022-10-31T17:33:44;18.10;80.30
57566;DHT22;63999;43.882;-0.310;2022-10-31T17:36:10;18.10;80.30
57566;DHT22;63999;43.882;-0.310;2022-10-31T17:38:37;18.10;80.30
57566;DHT22;63999;43.882;-0.310;2022-10-31T17:41:08;18.10;80.40
57566;DHT22;63999;43.882;-0.310;2022-10-31T17:43:33;18.10;80.30
57566;DHT22;63999;43.882;-0.310;2022-10-31T17:46:00;18.10;80.20
57566;DHT22;63999;43.882;-0.310;2022-10-31T17:48:27;18.10;80.20
57566;DHT22;63999;43.882;-0.310;2022-10-31T17:50:53;18.10;80.20
57566;DHT22;63999;43.882;-0.310;2022-10-31T17:53:19;18.10;80.30